Tiempo atmosférico en la estación meteorológica de Algarrobo, Málaga (80 m.)



Fecha
DESCASC
Temp. máxima en grados centígrados (hora)
DESCASC
Temp. mínima en grados centígrados (hora)
DESCASC
Temp. media en grados centígrados
DESCASC
Racha de viento máxima en m/sg (hora)
DESCASC
Velocidad máxima media en intervalos de 10 minutos(hora)
DESCASC
Precipitaciones diarias en mm
DESCASC
Precipitaciones de 00:00 a 06:00 en mm
DESCASC
Precipitaciones de 06:00 a 12:00 en mm
DESCASC
Precipitaciones de 12:00 a 18:00 en mm
DESCASC
Precipitaciones de 18:00 a 24:00 en mm
DESCASC
21-02-2019 16.6 (14:30) 8.9 (08:10) 12.8 8.06 (12:50) 5 (14:20) 0 0 0 0 0
20-02-2019 16.7 (14:30) 11.8 (08:20) 14.3 8.33 (15:10) 5 (15:10) 0.6 0.6 0 0 0
19-02-2019 17.1 (12:40) 9.4 (08:10) 13.3 5.28 (16:00) 3.89 (16:30) 0 0 0 0 0
18-02-2019 17.2 (13:20) 7.8 (04:40) 12.5 5.83 (17:00) 3.89 (13:50) 0 0 0 0 0
17-02-2019 17.3 (13:20) 9.1 (00:00) 13.2 5.83 (15:10) 3.61 (13:30) 0 0 0 0 0
16-02-2019 17.4 (12:30) 8.7 (00:00) 13 9.72 (18:00) 5 (15:40) 0 0 0 0 0
15-02-2019 17 (13:30) 9.9 (00:00) 13.4 7.78 (16:30) 5.28 (15:00) 0 0 0 0 0
14-02-2019 16.4 (12:50) 7.6 (00:00) 12 7.22 (14:50) 4.44 (13:20) 0 0 0 0 0
13-02-2019 16.3 (15:30) 7 (00:00) 11.6 9.72 (14:30) 5.83 (14:10) 0 0 0 0 0
12-02-2019 17 (11:50) 9.4 (00:00) 13.2 10.28 (12:40) 5.56 (15:10) 0 0 0 0 0
11-02-2019 20.2 (15:30) 9.2 (00:00) 14.7 4.72 (13:10) 2.78 (14:30) 0 0 0 0 0
10-02-2019 21.6 (14:50) 6.2 (00:00) 13.9 10.28 (16:00) 6.67 (16:10) 0 0 0 0 0
09-02-2019 17.6 (13:00) 5.7 (00:00) 11.7 3.89 (14:50) 2.22 (14:40) 0 0 0 0 0
08-02-2019 16.8 (13:30) 6.8 (00:00) 11.8 5.83 (14:30) 3.61 (14:30) 0 0 0 0 0
07-02-2019 18.8 (17:20) 5.4 (00:00) 12.1 4.17 (14:20) 2.78 (14:10) 0 0 0 0 0
06-02-2019 17.8 (12:00) 4.9 (00:00) 11.3 3.33 (13:50) 2.22 (12:40) 0 0 0 0 0
05-02-2019 16.2 (15:20) 4.5 (00:00) 10.4 4.44 (16:00) 2.5 (16:00) 0 0 0 0 0
04-02-2019 16.1 (15:00) 5.1 (00:00) 10.6 4.72 (07:50) 2.78 (15:30) 0 0 0 0 0
03-02-2019 17.5 (16:40) 7.3 (00:00) 12.4 10 (14:00) 5.56 (17:30) 0 0 0 0 0
02-02-2019 14.7 (16:20) 9.5 (00:00) 12.1 17.22 (14:40) 11.11 (12:50) 0.2 0 0.2 0 0
01-02-2019 17.6 (15:30) 9.8 (00:00) 13.7 16.39 (16:50) 9.72 (14:00) 15.6 3.6 11.2 0.2 0.6
31-01-2019 16.8 (16:50) 13.1 (00:00) 14.9 10 (17:00) 5.56 (15:40) 0 0 0 0 0
30-01-2019 17.1 (17:00) 12.6 (00:00) 14.9 15.28 (13:30) 9.72 (12:40) 0 0 0 0 0
29-01-2019 18.8 (14:00) 12.4 (00:00) 15.6 17.22 (12:20) 11.67 (12:20) 0 0 0 0 0
28-01-2019 18.3 (14:40) 7.5 (00:00) 12.9 21.39 (20:40) 12.78 (21:00) 0 0 0 0 0
27-01-2019 19.8 (15:10) 6.7 (00:00) 13.2 17.78 (17:40) 12.78 (17:40) 0 0 0 0 0
26-01-2019 18.9 (16:30) 7.6 (00:00) 13.2 4.44 (13:00) 3.33 (13:00) 0 0 0 0 0
25-01-2019 20.6 (14:20) 10.5 (00:00) 15.6 8.33 (05:00) 3.61 (06:20) 0 0 0 0 0
24-01-2019 23.2 (16:50) 14.3 (00:00) 18.8 18.89 (12:50) 13.33 (12:50) 0 0 0 0 0

Gráficas

Temp. máximas Temp. mínimas Temp. medias Precipitaciones Rachas de viento máximas Velocidades máximas media en intervalos de 10 minutos

Datos horarios

Fecha y hora oficial Temperatura (ºC) Velocidad del viento (km/h) Dirección del viento Racha (km/h) Dirección de racha Precipitación (mm) Presión (hPa) Tendencia (hPa) Humedad (%)
2019-02-22 23:00:00 9.7 5 Norte 7 Norte 0 -- -- 93
2019-02-22 22:00:00 9.5 3 Nordeste 5 Norte 0 -- -- 91
2019-02-22 21:00:00 10 3 Norte 5 Norte 0 -- -- 88
2019-02-22 20:00:00 11.5 0 Calma 3 Nordeste 0 -- -- 82
2019-02-22 19:00:00 14.2 0 Calma 7 Sudoeste 0 -- -- 74
2019-02-22 18:00:00 16 5 Sudoeste 11 Sudoeste 0 -- -- 68
2019-02-22 17:00:00 16.6 6 Sur 13 Sudoeste 0 -- -- 67
2019-02-22 16:00:00 16.6 8 Sur 15 Sudoeste 0 -- -- 66
2019-02-22 15:00:00 16.6 9 Sur 17 Sur 0 -- -- 68
2019-02-22 14:00:00 16.8 12 Sur 19 Sur 0 -- -- 69
2019-02-22 13:00:00 16.3 11 Sur 17 Sur 0 -- -- 68
2019-02-22 12:00:00 16 9 Sur 16 Sur 0 -- -- 71
2019-02-22 11:00:00 15.3 5 Sudoeste 13 Sur 0 -- -- 73
2019-02-22 10:00:00 12.5 5 Norte 8 Norte 0 -- -- 78
2019-02-22 09:00:00 10.3 5 Norte 7 Norte 0 -- -- 85
2019-02-22 08:00:00 10 2 Norte 8 Norte 0 -- -- 86
2019-02-22 07:00:00 9.6 4 Norte 11 Norte 0 -- -- 83
2019-02-22 06:00:00 9.7 5 Norte 8 Norte 0 -- -- 89
2019-02-22 05:00:00 9.8 3 Norte 8 Norte 0 -- -- 85
2019-02-22 04:00:00 10.5 5 Norte 11 Norte 0 -- -- 82
2019-02-22 03:00:00 10 6 Norte 10 Norte 0 -- -- 85
2019-02-22 02:00:00 10.2 5 Norte 9 Norte 0 -- -- 82
2019-02-22 01:00:00 12.2 3 Nordeste 9 Norte 0 -- -- 77
2019-02-22 00:00:00 13 4 Norte 5 Noroeste 0 -- -- 81
2019-02-21 23:00:00 13.6 0 Calma 9 Sudeste 0 -- -- 83
2019-02-21 22:00:00 13.9 2 Sudeste 12 Sudeste 0 -- -- 82
2019-02-21 21:00:00 13.8 5 Sudeste 11 Sur 0 -- -- 81
2019-02-21 20:00:00 13.9 4 Sudeste 14 Sudeste 0 -- -- 79
2019-02-21 19:00:00 14.2 6 Sudeste 17 Sudeste 0 -- -- 78
2019-02-21 18:00:00 14.8 10 Sur 18 Sudeste 0 -- -- 75
2019-02-21 17:00:00 15.7 14 Sur 23 Sur 0 -- -- 69
2019-02-21 16:00:00 16 14 Sur 26 Sudeste 0 -- -- 68
2019-02-21 15:00:00 16.2 15 Sudeste 28 Sur 0 -- -- 67
2019-02-21 14:00:00 16.2 18 Sur 28 Sur 0 -- -- 66
2019-02-21 13:00:00 16.5 16 Sur 29 Sur 0 -- -- 60
2019-02-21 12:00:00 16.1 15 Sur 27 Sudeste 0 -- -- 62
2019-02-21 11:00:00 15.4 12 Sudeste 26 Sudeste 0 -- -- 65
2019-02-21 10:00:00 13.9 9 Sudeste 17 Sudeste 0 -- -- 71
2019-02-21 09:00:00 9.9 5 Norte 7 Norte 0 -- -- 88
2019-02-21 08:00:00 9.1 4 Norte 9 Norte 0 -- -- 86
2019-02-21 07:00:00 9.3 4 Nordeste 8 Norte 0 -- -- 86
2019-02-21 06:00:00 10.2 4 Nordeste 7 Norte 0 -- -- 83
2019-02-21 05:00:00 11.9 3 Norte 6 Sudeste 0 -- -- 79
2019-02-21 04:00:00 12.9 3 Este 11 Sudeste 0 -- -- 81
2019-02-21 03:00:00 13.1 7 Sudeste 18 Sudeste 0 -- -- 80
2019-02-21 02:00:00 13.6 7 Sudeste 18 Sudeste 0 -- -- 77
2019-02-21 01:00:00 13.8 8 Sudeste 18 Sudeste 0 -- -- 80
2019-02-21 00:00:00 13.8 5 Sudeste 17 Sudeste 0 -- -- 80
2019-02-20 23:00:00 13.8 8 Sudeste 21 Sudeste 0 -- -- 80
2019-02-20 22:00:00 13.8 7 Sudeste 19 Sudeste 0 -- -- 80
2019-02-20 21:00:00 13.8 6 Sudeste 20 Este 0 -- -- 80
2019-02-20 20:00:00 13.4 6 Sudeste 19 Sudeste 0 -- -- 81
2019-02-20 19:00:00 13.7 6 Sudeste 18 Sur 0 -- -- 76
2019-02-20 18:00:00 15.1 10 Sur 23 Sudeste 0 -- -- 70
2019-02-20 17:00:00 16 11 Sudeste 26 Sudeste 0 -- -- 66
2019-02-20 16:00:00 16.3 15 Sur 30 Sudeste 0 -- -- 64
2019-02-20 15:00:00 16.2 18 Sudeste 30 Sudeste 0 -- -- 62
2019-02-20 14:00:00 16.2 17 Sudeste 27 Sudeste 0 -- -- 63
2019-02-20 13:00:00 15.9 15 Sudeste 25 Sudeste 0 -- -- 65
2019-02-20 12:00:00 16 10 Sur 22 Sudeste 0 -- -- 67
2019-02-20 11:00:00 15 14 Sur 21 Sudeste 0 -- -- 72
2019-02-20 10:00:00 14 12 Sudeste 19 Este 0 -- -- 77
2019-02-20 09:00:00 12 0 Calma 6 Este 0 -- -- 90
2019-02-20 08:00:00 11.9 3 Este 7 Nordeste 0 -- -- 89
2019-02-20 07:00:00 12.5 3 Nordeste 8 Este 0 -- -- 89
2019-02-20 06:00:00 12.6 0 Calma 5 Sudeste 0 -- -- 91
2019-02-20 05:00:00 12.8 3 Nordeste 5 Este 0 -- -- 91
2019-02-20 04:00:00 13 0 Calma 4 Sur 0.6 -- -- 90
2019-02-20 03:00:00 13.2 2 Norte 4 Norte 0 -- -- 84
2019-02-20 02:00:00 13.4 0 Calma 2 Este 0 -- -- 82
2019-02-20 01:00:00 13.7 0 Calma 6 Este 0 -- -- 79
2019-02-20 00:00:00 13.9 5 Sudeste 16 Sudeste 0 -- -- 78
2019-02-19 23:00:00 13.7 3 Sudeste 9 Sudeste 0 -- -- 82
2019-02-19 22:00:00 13.7 3 Sudeste 8 Este 0 -- -- 81
2019-02-19 21:00:00 13.6 5 Sudeste 9 Sur 0 -- -- 83
2019-02-19 20:00:00 12.6 0 Calma 2 Sudeste 0 -- -- 84
2019-02-19 19:00:00 14.3 0 Calma 9 Sudoeste 0 -- -- 78
2019-02-19 18:00:00 15.4 5 Sur 18 Sudoeste 0 -- -- 75
2019-02-19 17:00:00 16.3 11 Sudoeste 18 Sudoeste 0 -- -- 71
2019-02-19 16:00:00 16.3 13 Sudoeste 19 Oeste 0 -- -- 70
2019-02-19 15:00:00 16.7 9 Sudoeste 18 Sur 0 -- -- 67
2019-02-19 14:00:00 16.6 10 Sudoeste 18 Sur 0 -- -- 68
2019-02-19 13:00:00 16.9 9 Sudoeste 15 Sudoeste 0 -- -- 70
2019-02-19 12:00:00 16.4 3 Sudoeste 12 Sur 0 -- -- 66
2019-02-19 11:00:00 15.4 6 Sur 12 Sur 0 -- -- 62
2019-02-19 10:00:00 12.9 2 Sudoeste 4 Sudoeste 0 -- -- 75
2019-02-19 09:00:00 9.9 2 Sudoeste 10 Norte 0 -- -- 80
2019-02-19 08:00:00 9.6 5 Norte 10 Norte 0 -- -- 79
2019-02-19 07:00:00 10.4 7 Norte 12 Norte 0 -- -- 78
2019-02-19 06:00:00 11.2 4 Norte 10 Norte 0 -- -- 78
2019-02-19 05:00:00 11 6 Norte 12 Norte 0 -- -- 79
2019-02-19 04:00:00 10.9 6 Norte 10 Nordeste 0 -- -- 81
2019-02-19 03:00:00 10.6 7 Norte 12 Norte 0 -- -- 82
2019-02-19 02:00:00 10.6 5 Norte 11 Norte 0 -- -- 83
2019-02-19 01:00:00 11.1 6 Norte 9 Norte 0 -- -- 83
2019-02-19 00:00:00 11.8 5 Norte 10 Norte 0 -- -- 81
2019-02-18 23:00:00 11.5 5 Norte 10 Nordeste 0 -- -- 81
2019-02-18 22:00:00 11.3 6 Norte 9 Norte 0 -- -- 84
2019-02-18 21:00:00 11.6 3 Nordeste 5 Nordeste 0 -- -- 83
2019-02-18 20:00:00 12.7 2 Norte 5 Sudeste 0 -- -- 79
2019-02-18 19:00:00 14.8 4 Sudeste 19 Sur 0 -- -- 72
2019-02-18 18:00:00 15.9 11 Sur 20 Sur 0 -- -- 68
2019-02-18 17:00:00 16.9 8 Sudeste 21 Este 0 -- -- 58
2019-02-18 16:00:00 17 7 Sur 13 Sudoeste 0 -- -- 62
2019-02-18 15:00:00 16.2 9 Sudoeste 16 Sudoeste 0 -- -- 64
2019-02-18 14:00:00 16.5 11 Sudoeste 20 Sudoeste 0 -- -- 62
2019-02-18 13:00:00 17.1 7 Sur 15 Sur 0 -- -- 61
2019-02-18 12:00:00 16.7 7 Sudoeste 15 Sur 0 -- -- 61
2019-02-18 11:00:00 15.7 4 Sudoeste 7 Sur 0 -- -- 64
2019-02-18 10:00:00 12.7 4 Norte 9 Norte 0 -- -- 73
2019-02-18 09:00:00 9.5 4 Norte 8 Norte 0 -- -- 85
2019-02-18 08:00:00 8.7 6 Norte 11 Norte 0 -- -- 83
2019-02-18 07:00:00 8.7 5 Norte 11 Norte 0 -- -- 85
2019-02-18 06:00:00 8.5 7 Norte 10 Norte 0 -- -- 89
2019-02-18 05:00:00 8.4 5 Norte 7 Noroeste 0 -- -- 91
2019-02-18 04:00:00 8.1 3 Norte 7 Norte 0 -- -- 89
2019-02-18 03:00:00 8.7 4 Norte 8 Norte 0 -- -- 88
2019-02-18 02:00:00 8.6 4 Norte 8 Norte 0 -- -- 88
2019-02-18 01:00:00 9.4 4 Norte 10 Norte 0 -- -- 84
2019-02-18 00:00:00 9.7 6 Norte 10 Norte 0 -- -- 86
2019-02-17 23:00:00 10 3 Norte 9 Nordeste 0 -- -- 88
2019-02-17 22:00:00 10 4 Norte 7 Nordeste 0 -- -- 88
2019-02-17 21:00:00 10.7 3 Nordeste 6 Nordeste 0 -- -- 85
2019-02-17 20:00:00 12 3 Este 6 Sudeste 0 -- -- 81
2019-02-17 19:00:00 14.2 5 Sur 15 Sur 0 -- -- 74
2019-02-17 18:00:00 15.7 10 Sur 18 Sur 0 -- -- 68
2019-02-17 17:00:00 16.9 10 Sur 18 Sur 0 -- -- 63
2019-02-17 16:00:00 17.1 11 Sur 21 Sur 0 -- -- 61
2019-02-17 15:00:00 17.3 11 Sur 17 Sur 0 -- -- 62
2019-02-17 14:00:00 17.2 12 Sur 19 Sur 0 -- -- 62
2019-02-17 13:00:00 16.9 12 Sur 18 Sudoeste 0 -- -- 66
2019-02-17 12:00:00 16.4 8 Sudoeste 14 Oeste 0 -- -- 66
2019-02-17 11:00:00 15.3 4 Sudoeste 8 Sur 0 -- -- 67
2019-02-17 10:00:00 13.2 3 Sur 12 Norte 0 -- -- 73
2019-02-17 09:00:00 9.6 7 Norte 14 Norte 0 -- -- 81
2019-02-17 08:00:00 9.4 9 Norte 15 Norte 0 -- -- 80
2019-02-17 07:00:00 9.6 9 Norte 15 Norte 0 -- -- 79
2019-02-17 06:00:00 10 7 Norte 13 Norte 0 -- -- 85
2019-02-17 05:00:00 10.8 5 Nordeste 11 Norte 0 -- -- 86
2019-02-17 04:00:00 10.8 6 Norte 12 Nordeste 0 -- -- 86
2019-02-17 03:00:00 10.1 8 Norte 11 Norte 0 -- -- 84
2019-02-17 02:00:00 10.4 3 Norte 11 Norte 0 -- -- 84
2019-02-17 01:00:00 10.9 6 Norte 13 Norte 0 -- -- 84
2019-02-17 00:00:00 11.4 5 Norte 12 Norte 0 -- -- 85
2019-02-16 23:00:00 12.2 4 Nordeste 9 Norte 0 -- -- 83
2019-02-16 22:00:00 12.1 3 Norte 6 Nordeste 0 -- -- 87
2019-02-16 21:00:00 11.8 4 Norte 13 Sudeste 0 -- -- 85
2019-02-16 20:00:00 13.6 5 Este 24 Sudeste 0 -- -- 81
2019-02-16 19:00:00 14.3 10 Sudeste 33 Sudeste 0 -- -- 76
2019-02-16 18:00:00 15.2 16 Sudeste 35 Sudeste 0 -- -- 71
2019-02-16 17:00:00 16.2 9 Sudeste 31 Sudeste 0 -- -- 68
2019-02-16 16:00:00 17.2 16 Sudeste 32 Sudeste 0 -- -- 63
2019-02-16 15:00:00 17.2 13 Sudeste 28 Sudeste 0 -- -- 62
2019-02-16 14:00:00 16.7 14 Sudeste 28 Sudeste 0 -- -- 65
2019-02-16 13:00:00 17.2 10 Sur 17 Sur 0 -- -- 63
2019-02-16 12:00:00 16.4 9 Sudoeste 14 Sudoeste 0 -- -- 65
2019-02-16 11:00:00 15.8 5 Sudoeste 9 Sudoeste 0 -- -- 66
2019-02-16 10:00:00 12.9 4 Norte 8 Norte 0 -- -- 74
2019-02-16 09:00:00 9.9 5 Norte 12 Norte 0 -- -- 78
2019-02-16 08:00:00 9.3 8 Norte 15 Nordeste 0 -- -- 77
2019-02-16 07:00:00 9.5 8 Norte 17 Norte 0 -- -- 79
2019-02-16 06:00:00 9.2 7 Norte 12 Norte 0 -- -- 83
2019-02-16 05:00:00 8.8 9 Norte 13 Norte 0 -- -- 86
2019-02-16 04:00:00 9 7 Norte 10 Norte 0 -- -- 86
2019-02-16 03:00:00 9.4 7 Norte 11 Norte 0 -- -- 87
2019-02-16 02:00:00 10.3 5 Norte 7 Norte 0 -- -- 85
2019-02-16 01:00:00 11.9 7 Norte 10 Norte 0 -- -- 79
2019-02-16 00:00:00 12 4 Norte 8 Norte 0 -- -- 83
2019-02-15 23:00:00 11.1 5 Norte 8 Norte 0 -- -- 88
2019-02-15 22:00:00 10.4 3 Norte 8 Norte 0 -- -- 85
2019-02-15 21:00:00 11.8 3 Norte 6 Norte 0 -- -- 81
2019-02-15 20:00:00 13.9 0 Calma 12 Sudeste 0 -- -- 75
2019-02-15 19:00:00 14.2 4 Sudeste 19 Sudeste 0 -- -- 75
2019-02-15 18:00:00 14.4 10 Sudeste 24 Sur 0 -- -- 73
2019-02-15 17:00:00 15.4 16 Sudeste 28 Sudeste 0 -- -- 65
2019-02-15 16:00:00 16.2 14 Sur 27 Sudeste 0 -- -- 66
2019-02-15 15:00:00 15.9 19 Sudeste 28 Sudeste 0 -- -- 65
2019-02-15 14:00:00 16.8 14 Sudeste 27 Sur 0 -- -- 61
2019-02-15 13:00:00 15.5 15 Sur 25 Sur 0 -- -- 65
2019-02-15 12:00:00 16.2 15 Sur 25 Sur 0 -- -- 68
2019-02-15 11:00:00 15.4 12 Sur 21 Sur 0 -- -- 71
2019-02-15 10:00:00 13.7 3 Sur 5 Sur 0 -- -- 75
2019-02-15 09:00:00 11.9 3 Sudeste 5 Norte 0 -- -- 84
2019-02-15 08:00:00 12.6 3 Este 13 Sudeste 0 -- -- 80
2019-02-15 07:00:00 13.1 6 Sudeste 14 Sudeste 0 -- -- 80
2019-02-15 06:00:00 12.9 3 Sudeste 10 Sudeste 0 -- -- 81
2019-02-15 05:00:00 12.9 2 Nordeste 4 Este 0 -- -- 82
2019-02-15 04:00:00 13.2 0 Calma 9 Este 0 -- -- 81
2019-02-15 03:00:00 13.5 5 Sudeste 18 Sudeste 0 -- -- 80
2019-02-15 02:00:00 13.7 6 Sudeste 19 Sudeste 0 -- -- 80
2019-02-15 01:00:00 13.8 10 Sudeste 19 Sudeste 0 -- -- 81
2019-02-15 00:00:00 13.9 9 Sudeste 19 Sudeste 0 -- -- 79
2019-02-14 23:00:00 13.9 5 Sudeste 18 Sudeste 0 -- -- 80
2019-02-14 22:00:00 13.8 4 Este 13 Sudeste 0 -- -- 76
2019-02-14 21:00:00 13.8 4 Sudeste 12 Este 0 -- -- 74
2019-02-14 20:00:00 13.8 6 Sudeste 15 Sur 0 -- -- 74
2019-02-14 19:00:00 14 8 Sudeste 21 Sudeste 0 -- -- 75
2019-02-14 18:00:00 14.9 12 Sudeste 24 Sudeste 0 -- -- 69
2019-02-14 17:00:00 16 12 Sudeste 24 Sudeste 0 -- -- 64
2019-02-14 16:00:00 16.1 14 Sur 25 Sur 0 -- -- 62
2019-02-14 15:00:00 16.1 12 Sudeste 26 Sudeste 0 -- -- 62
2019-02-14 14:00:00 16.3 13 Sur 22 Sur 0 -- -- 61
2019-02-14 13:00:00 16 13 Sur 20 Sur 0 -- -- 58
2019-02-14 12:00:00 16 6 Sur 15 Sur 0 -- -- 57
2019-02-14 11:00:00 14.9 6 Sudoeste 10 Sudoeste 0 -- -- 59
2019-02-14 10:00:00 11.6 5 Norte 9 Norte 0 -- -- 71
2019-02-14 09:00:00 7.8 5 Norte 9 Norte 0 -- -- 84
2019-02-14 08:00:00 8 5 Norte 8 Nordeste 0 -- -- 85
2019-02-14 07:00:00 8.3 5 Nordeste 9 Norte 0 -- -- 87
2019-02-14 06:00:00 8.9 4 Norte 7 Norte 0 -- -- 88
2019-02-14 05:00:00 9.9 3 Norte 5 Norte 0 -- -- 88
2019-02-14 04:00:00 9.5 3 Norte 6 Nordeste 0 -- -- 91
2019-02-14 03:00:00 8.7 5 Norte 8 Norte 0 -- -- 92
2019-02-14 02:00:00 8 4 Norte 8 Norte 0 -- -- 91
2019-02-14 01:00:00 8.7 6 Norte 8 Norte 0 -- -- 90
2019-02-14 00:00:00 8.9 6 Norte 8 Norte 0 -- -- 89
2019-02-13 23:00:00 9.2 5 Norte 8 Norte 0 -- -- 88
2019-02-13 22:00:00 9.4 4 Norte 8 Norte 0 -- -- 87
2019-02-13 21:00:00 10.3 4 Norte 6 Norte 0 -- -- 84
2019-02-13 20:00:00 12.4 3 Este 12 Este 0 -- -- 77
2019-02-13 19:00:00 13.7 5 Sudeste 21 Sudeste 0 -- -- 73
2019-02-13 18:00:00 15.3 12 Sudeste 24 Sudeste 0 -- -- 69
2019-02-13 17:00:00 15.9 14 Sudeste 27 Sudeste 0 -- -- 66
2019-02-13 16:00:00 16 16 Sudeste 34 Sur 0 -- -- 66
2019-02-13 15:00:00 15.9 19 Sudeste 35 Sudeste 0 -- -- 63
2019-02-13 14:00:00 15.9 20 Sudeste 31 Sudeste 0 -- -- 61
2019-02-13 13:00:00 15.9 16 Sudeste 27 Sudeste 0 -- -- 60
2019-02-13 12:00:00 15.5 12 Sur 21 Sudeste 0 -- -- 57
2019-02-13 11:00:00 14.9 9 Sudeste 15 Sudeste 0 -- -- 55
2019-02-13 10:00:00 11.4 4 Norte 7 Norte 0 -- -- 67
2019-02-13 09:00:00 7.3 5 Norte 9 Norte 0 -- -- 80
2019-02-13 08:00:00 7.4 6 Norte 12 Norte 0 -- -- 74
2019-02-13 07:00:00 7.4 5 Norte 11 Norte 0 -- -- 78
2019-02-13 06:00:00 7.4 5 Norte 10 Norte 0 -- -- 82
2019-02-13 05:00:00 7.6 6 Norte 9 Norte 0 -- -- 84
2019-02-13 04:00:00 8.2 5 Norte 12 Norte 0 -- -- 82
2019-02-13 03:00:00 8.1 4 Norte 8 Norte 0 -- -- 86
2019-02-13 02:00:00 8.5 3 Norte 7 Norte 0 -- -- 85
2019-02-13 01:00:00 9.1 4 Norte 7 Norte 0 -- -- 87
2019-02-13 00:00:00 10.1 3 Nordeste 14 Este 0 -- -- 82
2019-02-12 23:00:00 10.9 3 Nordeste 14 Este 0 -- -- 78
2019-02-12 22:00:00 11.7 2 Este 12 Este 0 -- -- 76
2019-02-12 21:00:00 12.4 3 Sudeste 15 Sudeste 0 -- -- 70
2019-02-12 20:00:00 13.6 10 Sudeste 24 Sudeste 0 -- -- 68
2019-02-12 19:00:00 13.9 9 Sudeste 29 Sudeste 0 -- -- 73
2019-02-12 18:00:00 15.3 14 Sudeste 31 Sudeste 0 -- -- 70
2019-02-12 17:00:00 15.9 17 Sudeste 34 Sudeste 0 -- -- 68
2019-02-12 16:00:00 16.2 17 Sudeste 35 Sur 0 -- -- 64
2019-02-12 15:00:00 16.3 19 Sudeste 35 Sudeste 0 -- -- 66
2019-02-12 14:00:00 15.7 17 Sudeste 37 Sudeste 0 -- -- 64
2019-02-12 13:00:00 16.4 15 Sudeste 37 Sudeste 0 -- -- 60
2019-02-12 12:00:00 16.4 17 Sudeste 33 Sudeste 0 -- -- 63
2019-02-12 11:00:00 16.1 8 Sudeste 21 Este 0 -- -- 54
2019-02-12 10:00:00 14.6 5 Sudeste 12 Sudeste 0 -- -- 69
2019-02-12 09:00:00 12.4 3 Este 16 Este 0 -- -- 83
2019-02-12 08:00:00 12.4 3 Este 13 Este 0 -- -- 81
2019-02-12 07:00:00 11.6 4 Nordeste 9 Nordeste 0 -- -- 84
2019-02-12 06:00:00 11.4 5 Norte 9 Norte 0 -- -- 84
2019-02-12 05:00:00 11.9 5 Norte 8 Norte 0 -- -- 86
2019-02-12 04:00:00 11.7 2 Norte 4 Norte 0 -- -- 87
2019-02-12 03:00:00 12 3 Este 11 Sudeste 0 -- -- 85
2019-02-12 02:00:00 9.5 2 Nordeste 5 Nordeste 0 -- -- 86
2019-02-12 01:00:00 9.8 0 Calma 6 Norte 0 -- -- 84
2019-02-12 00:00:00 10.2 4 Nordeste 6 Nordeste 0 -- -- 84
2019-02-11 23:00:00 10.3 3 Norte 5 Nordeste 0 -- -- 84
2019-02-11 22:00:00 11.2 3 Norte 12 Norte 0 -- -- 81
2019-02-11 21:00:00 11.9 3 Norte 10 Nordeste 0 -- -- 80
2019-02-11 20:00:00 13.1 3 Norte 4 Nordeste 0 -- -- 82
2019-02-11 19:00:00 16.3 0 Calma 6 Sur 0 -- -- 73
2019-02-11 18:00:00 18.2 5 Sudoeste 13 Sudoeste 0 -- -- 65
2019-02-11 17:00:00 19.5 8 Sur 15 Sudeste 0 -- -- 47
2019-02-11 16:00:00 20 10 Sur 15 Sur 0 -- -- 48
2019-02-11 15:00:00 19.8 9 Sur 15 Sur 0 -- -- 49
2019-02-11 14:00:00 19.8 9 Sur 17 Sur 0 -- -- 50
2019-02-11 13:00:00 19.1 9 Sur 14 Sur 0 -- -- 52
2019-02-11 12:00:00 19 8 Sur 15 Sudoeste 0 -- -- 55
2019-02-11 11:00:00 18 8 Sur 13 Sur 0 -- -- 60
2019-02-11 10:00:00 15.3 0 Calma 8 Norte 0 -- -- 69
2019-02-11 09:00:00 10.2 6 Norte 10 Norte 0 -- -- 82
2019-02-11 08:00:00 9.4 3 Norte 7 Norte 0 -- -- 82
2019-02-11 07:00:00 9.2 3 Nordeste 6 Norte 0 -- -- 80
2019-02-11 06:00:00 9.7 4 Norte 9 Norte 0 -- -- 77
2019-02-11 05:00:00 10.4 4 Nordeste 9 Norte 0 -- -- 76
2019-02-11 04:00:00 10.1 2 Nordeste 6 Norte 0 -- -- 76
2019-02-11 03:00:00 11 3 Nordeste 9 Norte 0 -- -- 72
2019-02-11 02:00:00 10.7 4 Nordeste 9 Nordeste 0 -- -- 69
2019-02-11 01:00:00 10.4 5 Norte 9 Norte 0 -- -- 69
2019-02-11 00:00:00 11.5 4 Nordeste 12 Norte 0 -- -- 64
2019-02-10 23:00:00 11.6 4 Norte 12 Norte 0 -- -- 61
2019-02-10 22:00:00 11.9 3 Norte 21 Norte 0 -- -- 61
2019-02-10 21:00:00 12.9 8 Norte 12 Norte 0 -- -- 59
2019-02-10 20:00:00 14.5 5 Norte 13 Norte 0 -- -- 54
2019-02-10 19:00:00 17.2 7 Norte 24 Noroeste 0 -- -- 47
2019-02-10 18:00:00 20.1 8 Noroeste 26 Noroeste 0 -- -- 40
2019-02-10 17:00:00 21.1 22 Noroeste 37 Noroeste 0 -- -- 39
2019-02-10 16:00:00 21.2 22 Noroeste 37 Noroeste 0 -- -- 38
2019-02-10 15:00:00 21.3 14 Oeste 26 Oeste 0 -- -- 34
2019-02-10 14:00:00 19.6 10 Sudoeste 14 Sudoeste 0 -- -- 46
2019-02-10 13:00:00 18.1 12 Sudoeste 17 Sudoeste 0 -- -- 51
2019-02-10 12:00:00 18.1 9 Oeste 23 Noroeste 0 -- -- 42
2019-02-10 11:00:00 15.8 4 Sur 11 Noroeste 0 -- -- 58
2019-02-10 10:00:00 11.6 4 Nordeste 9 Norte 0 -- -- 61
2019-02-10 09:00:00 6.3 3 Nordeste 6 Nordeste 0 -- -- 86
2019-02-10 08:00:00 6.3 0 Calma 8 Norte 0 -- -- 83
2019-02-10 07:00:00 7.4 0 Calma 10 Norte 0 -- -- 74
2019-02-10 06:00:00 9.1 4 Norte 12 Nordeste 0 -- -- 62
2019-02-10 05:00:00 9.6 7 Norte 12 Norte 0 -- -- 60
2019-02-10 04:00:00 9.5 7 Norte 11 Norte 0 -- -- 65
2019-02-10 03:00:00 9.7 6 Norte 12 Norte 0 -- -- 63
2019-02-10 02:00:00 10.2 6 Norte 13 Norte 0 -- -- 60
2019-02-10 01:00:00 8.1 4 Norte 12 Norte 0 -- -- 73
2019-02-10 00:00:00 8.8 3 Norte 11 Norte 0 -- -- 73
2019-02-09 23:00:00 8.8 0 Calma 12 Norte 0 -- -- 80
2019-02-09 22:00:00 8.8 5 Norte 11 Norte 0 -- -- 87
2019-02-09 21:00:00 9.7 3 Nordeste 5 Nordeste 0 -- -- 87
2019-02-09 20:00:00 11.2 0 Calma 8 Norte 0 -- -- 81
2019-02-09 19:00:00 14.4 2 Norte 4 Sudoeste 0 -- -- 73
2019-02-09 18:00:00 16.6 3 Sur 10 Sudoeste 0 -- -- 66
2019-02-09 17:00:00 17 7 Sur 12 Sur 0 -- -- 66
2019-02-09 16:00:00 17 6 Sudoeste 13 Sur 0 -- -- 69
2019-02-09 15:00:00 16.8 7 Sudoeste 14 Sudoeste 0 -- -- 69
2019-02-09 14:00:00 17.2 5 Sudoeste 12 Sudoeste 0 -- -- 61
2019-02-09 13:00:00 17.6 6 Sur 11 Sudoeste 0 -- -- 56
2019-02-09 12:00:00 16.3 7 Sudoeste 10 Sudoeste 0 -- -- 63
2019-02-09 11:00:00 15.9 0 Calma 4 Sudoeste 0 -- -- 57
2019-02-09 10:00:00 11 2 Sur 4 Norte 0 -- -- 82
2019-02-09 09:00:00 5.9 0 Calma 4 Norte 0 -- -- 90
2019-02-09 08:00:00 5.8 0 Calma 7 Norte 0 -- -- 88
2019-02-09 07:00:00 5.8 3 Nordeste 9 Norte 0 -- -- 88
2019-02-09 06:00:00 6.3 3 Norte 9 Nordeste 0 -- -- 89
2019-02-09 05:00:00 6.8 3 Norte 8 Norte 0 -- -- 90
2019-02-09 04:00:00 7.4 4 Nordeste 6 Norte 0 -- -- 94
2019-02-09 03:00:00 7.8 5 Norte 7 Norte 0 -- -- 95
2019-02-09 02:00:00 8.1 3 Norte 7 Norte 0 -- -- 95
2019-02-09 01:00:00 7.8 3 Nordeste 5 Norte 0 -- -- 95
2019-02-09 00:00:00 8.3 3 Norte 5 Este 0 -- -- 94
2019-02-08 23:00:00 9.1 0 Calma 5 Norte 0 -- -- 93
2019-02-08 22:00:00 10.5 3 Nordeste 5 Nordeste 0 -- -- 92
2019-02-08 21:00:00 11.9 3 Nordeste 6 Nordeste 0 -- -- 92
2019-02-08 20:00:00 12.3 0 Calma 3 Nordeste 0 -- -- 89
2019-02-08 19:00:00 13.5 0 Calma 5 Sudoeste 0 -- -- 83
2019-02-08 18:00:00 15.7 4 Sudoeste 12 Sudoeste 0 -- -- 78
2019-02-08 17:00:00 16.4 7 Sur 19 Sur 0 -- -- 76
2019-02-08 16:00:00 16.3 11 Sur 19 Sudeste 0 -- -- 78
2019-02-08 15:00:00 16.5 12 Sur 21 Sudeste 0 -- -- 76
2019-02-08 14:00:00 16.2 9 Sudeste 18 Sur 0 -- -- 76
2019-02-08 13:00:00 16.5 8 Sur 13 Sur 0 -- -- 69
2019-02-08 12:00:00 15.5 6 Sudoeste 10 Sur 0 -- -- 70
2019-02-08 11:00:00 14.9 7 Sur 11 Sur 0 -- -- 74
2019-02-08 10:00:00 11.8 0 Calma 5 Norte 0 -- -- 97
2019-02-08 09:00:00 7.8 3 Nordeste 6 Norte 0 -- -- 95
2019-02-08 08:00:00 7.5 4 Norte 5 Norte 0 -- -- 94
2019-02-08 07:00:00 7.1 0 Calma 5 Norte 0 -- -- 90
2019-02-08 06:00:00 7.6 3 Nordeste 8 Norte 0 -- -- 83
2019-02-08 05:00:00 7.9 6 Norte 11 Norte 0 -- -- 88
2019-02-08 04:00:00 7.7 4 Norte 8 Norte 0 -- -- 87
2019-02-08 03:00:00 7.6 3 Norte 6 Norte 0 -- -- 86
2019-02-08 02:00:00 7.5 4 Norte 6 Norte 0 -- -- 90
2019-02-08 01:00:00 7.7 4 Norte 6 Norte 0 -- -- 92
2019-02-08 00:00:00 8.1 2 Norte 5 Norte 0 -- -- 91
2019-02-07 23:00:00 8.7 3 Nordeste 5 Norte 0 -- -- 91
2019-02-07 22:00:00 9.1 3 Nordeste 5 Nordeste 0 -- -- 89
2019-02-07 21:00:00 9.7 4 Norte 6 Norte 0 -- -- 86
2019-02-07 20:00:00 11.6 2 Norte 5 Norte 0 -- -- 82
2019-02-07 19:00:00 14.8 0 Calma 8 Sur 0 -- -- 73
2019-02-07 18:00:00 17.3 5 Sudeste 14 Sudeste 0 -- -- 63
2019-02-07 17:00:00 18.5 6 Sudeste 13 Sudoeste 0 -- -- 52
2019-02-07 16:00:00 18.1 9 Sur 13 Sur 0 -- -- 63
2019-02-07 15:00:00 17.7 8 Sur 15 Sur 0 -- -- 51
2019-02-07 14:00:00 18.4 9 Sur 12 Sudoeste 0 -- -- 50
2019-02-07 13:00:00 16.7 5 Sudoeste 12 Sudoeste 0 -- -- 60
2019-02-07 12:00:00 17 6 Sur 9 Sur 0 -- -- 57
2019-02-07 11:00:00 14.9 2 Oeste 4 Sur 0 -- -- 62
2019-02-07 10:00:00 10.6 0 Calma 6 Norte 0 -- -- 71
2019-02-07 09:00:00 6.5 3 Norte 5 Norte 0 -- -- 82
2019-02-07 08:00:00 6.3 3 Norte 7 Norte 0 -- -- 83
2019-02-07 07:00:00 5.8 3 Norte 7 Norte 0 -- -- 85
2019-02-07 06:00:00 6 4 Norte 6 Norte 0 -- -- 83
2019-02-07 05:00:00 5.4 3 Nordeste 5 Norte 0 -- -- 80
2019-02-07 04:00:00 6.3 0 Calma 4 Nordeste 0 -- -- 79
2019-02-07 03:00:00 6.7 3 Nordeste 8 Norte 0 -- -- 75
2019-02-07 02:00:00 7.4 0 Calma 7 Norte 0 -- -- 72
2019-02-07 01:00:00 7.6 2 Norte 8 Norte 0 -- -- 73
2019-02-07 00:00:00 6.8 3 Norte 6 Nordeste 0 -- -- 80
2019-02-06 23:00:00 7.3 0 Calma 6 Norte 0 -- -- 80
2019-02-06 22:00:00 7.9 4 Norte 8 Nordeste 0 -- -- 83
2019-02-06 21:00:00 8.8 3 Norte 5 Norte 0 -- -- 88
2019-02-06 20:00:00 10.3 2 Nordeste 3 Nordeste 0 -- -- 80
2019-02-06 19:00:00 13.8 0 Calma 6 Sudoeste 0 -- -- 65
2019-02-06 18:00:00 16.4 4 Sudoeste 7 Sudoeste 0 -- -- 51
2019-02-06 17:00:00 17.2 5 Sudoeste 10 Sur 0 -- -- 48
2019-02-06 16:00:00 17.4 4 Sudoeste 10 Sudoeste 0 -- -- 35
2019-02-06 15:00:00 16.6 6 Sudoeste 12 Sudoeste 0 -- -- 48
2019-02-06 14:00:00 16.3 6 Sudoeste 12 Sudoeste 0 -- -- 56
2019-02-06 13:00:00 16.1 8 Sudoeste 12 Sudoeste 0 -- -- 61
2019-02-06 12:00:00 17.8 5 Sur 9 Sudoeste 0 -- -- 40
2019-02-06 11:00:00 15.8 2 Sudoeste 5 Sudoeste 0 -- -- 45
2019-02-06 10:00:00 10.5 2 Norte 5 Norte 0 -- -- 68
2019-02-06 09:00:00 5.7 3 Norte 8 Norte 0 -- -- 75
2019-02-06 08:00:00 6.4 5 Norte 10 Norte 0 -- -- 73
2019-02-06 07:00:00 5.1 4 Norte 6 Norte 0 -- -- 87
2019-02-06 06:00:00 5 3 Norte 5 Norte 0 -- -- 77
2019-02-06 05:00:00 5.5 3 Nordeste 5 Nordeste 0 -- -- 77
2019-02-06 04:00:00 5.4 0 Calma 6 Norte 0 -- -- 76
2019-02-06 03:00:00 6.1 0 Calma 7 Norte 0 -- -- 73
2019-02-06 02:00:00 7 5 Norte 12 Norte 0 -- -- 67
2019-02-06 01:00:00 6.2 3 Norte 5 Norte 0 -- -- 82
2019-02-06 00:00:00 7.1 2 Nordeste 11 Norte 0 -- -- 75
2019-02-05 23:00:00 8.5 6 Norte 12 Norte 0 -- -- 73
2019-02-05 22:00:00 8.2 4 Norte 8 Nordeste 0 -- -- 80
2019-02-05 21:00:00 8.8 4 Norte 7 Norte 0 -- -- 79
2019-02-05 20:00:00 9.7 3 Norte 5 Norte 0 -- -- 78
2019-02-05 19:00:00 13 0 Calma 6 Sur 0 -- -- 67
2019-02-05 18:00:00 15.1 4 Sudoeste 11 Sudoeste 0 -- -- 56
2019-02-05 17:00:00 15.7 8 Sudoeste 13 Sudoeste 0 -- -- 54
2019-02-05 16:00:00 15.6 9 Sudoeste 16 Sudoeste 0 -- -- 56
2019-02-05 15:00:00 16 8 Sudoeste 15 Sur 0 -- -- 48
2019-02-05 14:00:00 16 8 Sur 12 Sur 0 -- -- 50
2019-02-05 13:00:00 15.3 8 Sudoeste 15 Sudoeste 0 -- -- 57
2019-02-05 12:00:00 14.8 8 Sudoeste 12 Sudoeste 0 -- -- 59
2019-02-05 11:00:00 13.9 4 Sudoeste 6 Sur 0 -- -- 53
2019-02-05 10:00:00 10 0 Calma 6 Norte 0 -- -- 68
2019-02-05 09:00:00 5.4 5 Norte 8 Norte 0 -- -- 74
2019-02-05 08:00:00 4.8 3 Norte 5 Norte 0 -- -- 75
2019-02-05 07:00:00 5.6 0 Calma 11 Norte 0 -- -- 70
2019-02-05 06:00:00 5.2 5 Norte 9 Norte 0 -- -- 71
2019-02-05 05:00:00 5.7 0 Calma 9 Nordeste 0 -- -- 69
2019-02-05 04:00:00 6.2 4 Nordeste 10 Nordeste 0 -- -- 66
2019-02-05 03:00:00 5.9 4 Norte 9 Norte 0 -- -- 64
2019-02-05 02:00:00 5.5 5 Norte 10 Norte 0 -- -- 69
2019-02-05 01:00:00 6.3 5 Norte 9 Norte 0 -- -- 67
2019-02-05 00:00:00 6.9 6 Norte 10 Norte 0 -- -- 65
2019-02-04 23:00:00 7 5 Norte 9 Nordeste 0 -- -- 68
2019-02-04 22:00:00 6.7 4 Norte 8 Norte 0 -- -- 73
2019-02-04 21:00:00 7.1 3 Nordeste 7 Norte 0 -- -- 72
2019-02-04 20:00:00 8.5 5 Norte 7 Norte 0 -- -- 67
2019-02-04 19:00:00 11.9 2 Nordeste 8 Sudoeste 0 -- -- 56
2019-02-04 18:00:00 14.9 5 Sudoeste 11 Sudoeste 0 -- -- 44
2019-02-04 17:00:00 15.1 7 Sudoeste 14 Sudoeste 0 -- -- 45
2019-02-04 16:00:00 15.6 6 Sudoeste 15 Sudoeste 0 -- -- 39
2019-02-04 15:00:00 16.1 8 Sudoeste 14 Sudoeste 0 -- -- 40
2019-02-04 14:00:00 15.6 7 Sudoeste 13 Sudoeste 0 -- -- 40
2019-02-04 13:00:00 15.3 8 Sudoeste 15 Sur 0 -- -- 38
2019-02-04 12:00:00 15.5 6 Sur 10 Sur 0 -- -- 33
2019-02-04 11:00:00 14.3 4 Sudoeste 6 Sudoeste 0 -- -- 33
2019-02-04 10:00:00 9.6 2 Nordeste 10 Norte 0 -- -- 56
2019-02-04 09:00:00 5.7 5 Nordeste 12 Nordeste 0 -- -- 52
2019-02-04 08:00:00 6.7 6 Norte 17 Norte 0 -- -- 45
2019-02-04 07:00:00 6 7 Norte 12 Norte 0 -- -- 51
2019-02-04 06:00:00 5.6 4 Norte 15 Norte 0 -- -- 55
2019-02-04 05:00:00 6.3 10 Norte 15 Norte 0 -- -- 48
2019-02-04 04:00:00 5.6 5 Norte 10 Nordeste 0 -- -- 52
2019-02-04 03:00:00 5.6 3 Norte 12 Norte 0 -- -- 56
2019-02-04 02:00:00 5.5 5 Nordeste 12 Norte 0 -- -- 55
2019-02-04 01:00:00 6.1 5 Norte 13 Nordeste 0 -- -- 54
2019-02-04 00:00:00 7.4 6 Norte 13 Noroeste 0 -- -- 50
2019-02-03 23:00:00 9.4 2 Norte 16 Norte 0 -- -- 43
2019-02-03 22:00:00 12.2 7 Norte 30 Norte 0 -- -- 29
2019-02-03 21:00:00 12.8 10 Nordeste 30 Nordeste 0 -- -- 28
2019-02-03 20:00:00 12.9 13 Nordeste 28 Norte 0 -- -- 25
2019-02-03 19:00:00 12.9 4 Norte 23 Sudoeste 0 -- -- 33
2019-02-03 18:00:00 15.9 10 Oeste 29 Noroeste 0 -- -- 24
2019-02-03 17:00:00 17.2 12 Norte 24 Noroeste 0 -- -- 26
2019-02-03 16:00:00 17 9 Nordeste 23 Nordeste 0 -- -- 26
2019-02-03 15:00:00 16.8 11 Noroeste 33 Norte 0 -- -- 28
2019-02-03 14:00:00 15.9 18 Norte 36 Norte 0 -- -- 25
2019-02-03 13:00:00 14.8 10 Sudoeste 18 Sudoeste 0 -- -- 34
2019-02-03 12:00:00 14.8 10 Sur 19 Sudeste 0 -- -- 31
2019-02-03 11:00:00 13.8 9 Noroeste 20 Noroeste 0 -- -- 32
2019-02-03 10:00:00 10.3 12 Oeste 27 Noroeste 0 -- -- 40
2019-02-03 09:00:00 7.5 13 Noroeste 23 Noroeste 0 -- -- 52
2019-02-03 08:00:00 7.5 11 Noroeste 33 Noroeste 0 -- -- 52
2019-02-03 07:00:00 7.7 16 Noroeste 32 Noroeste 0 -- -- 51
2019-02-03 06:00:00 8 18 Noroeste 27 Noroeste 0 -- -- 50
2019-02-03 05:00:00 8.3 19 Noroeste 29 Noroeste 0 -- -- 50
2019-02-03 04:00:00 8.6 17 Noroeste 27 Noroeste 0 -- -- 51
2019-02-03 03:00:00 8.5 17 Noroeste 27 Noroeste 0 -- -- 52
2019-02-03 02:00:00 8.8 12 Noroeste 29 Noroeste 0 -- -- 52
2019-02-03 01:00:00 9.7 16 Noroeste 30 Noroeste 0 -- -- 48
2019-02-03 00:00:00 10.2 21 Noroeste 34 Noroeste 0 -- -- 48
2019-02-02 23:00:00 10.7 26 Noroeste 40 Noroeste 0 -- -- 48
2019-02-02 22:00:00 10.8 21 Noroeste 32 Noroeste 0 -- -- 49
2019-02-02 21:00:00 10.9 17 Noroeste 36 Noroeste 0 -- -- 49
2019-02-02 20:00:00 11.4 19 Noroeste 39 Noroeste 0 -- -- 47
2019-02-02 19:00:00 11.8 15 Noroeste 27 Noroeste 0 -- -- 47
2019-02-02 18:00:00 13.6 23 Norte 45 Noroeste 0 -- -- 42
2019-02-02 17:00:00 14.4 24 Noroeste 40 Noroeste 0 -- -- 40
2019-02-02 16:00:00 14.1 21 Noroeste 54 Norte 0 -- -- 44
2019-02-02 15:00:00 14 30 Noroeste 62 Noroeste 0 -- -- 45
2019-02-02 14:00:00 13.5 35 Noroeste 62 Noroeste 0 -- -- 45
2019-02-02 13:00:00 13.2 37 Noroeste 61 Norte 0 -- -- 45
2019-02-02 12:00:00 13.1 30 Norte 51 Noroeste 0.2 -- -- 48
2019-02-02 11:00:00 12.7 31 Noroeste 46 Noroeste 0 -- -- 45
2019-02-02 10:00:00 11.5 20 Noroeste 29 Noroeste 0 -- -- 59
2019-02-02 09:00:00 10.2 16 Noroeste 35 Noroeste 0 -- -- 65
2019-02-02 08:00:00 10 19 Noroeste 38 Noroeste 0 -- -- 65
2019-02-02 07:00:00 10.5 17 Noroeste 36 Noroeste 0 -- -- 62
2019-02-02 06:00:00 10.5 19 Noroeste 35 Noroeste 0 -- -- 65
2019-02-02 05:00:00 10.3 6 Noroeste 22 Oeste 0 -- -- 65
2019-02-02 04:00:00 9.9 5 Noroeste 25 Noroeste 0 -- -- 68
2019-02-02 03:00:00 10.1 16 Noroeste 30 Oeste 0 -- -- 65
2019-02-02 02:00:00 9.9 14 Noroeste 31 Noroeste 0 -- -- 65
2019-02-02 01:00:00 10.3 15 Noroeste 36 Noroeste 0 -- -- 64
2019-02-02 00:00:00 9.9 14 Noroeste 42 Noroeste 0 -- -- 68
2019-02-01 23:00:00 10.5 10 Noroeste 30 Noroeste 0 -- -- 68
2019-02-01 22:00:00 9.8 7 Noroeste 36 Norte 0.4 -- -- 82
2019-02-01 21:00:00 11.2 26 Norte 43 Noroeste 0 -- -- 72
2019-02-01 20:00:00 10.2 8 Norte 46 Noroeste 0.2 -- -- 80
2019-02-01 19:00:00 12.9 9 Noroeste 36 Norte 0 -- -- 62
2019-02-01 18:00:00 14.4 20 Noroeste 47 Norte 0 -- -- 55
2019-02-01 17:00:00 15.9 34 Noroeste 59 Noroeste 0 -- -- 49
2019-02-01 16:00:00 17 28 Noroeste 51 Noroeste 0 -- -- 42
2019-02-01 15:00:00 17 26 Noroeste 50 Noroeste 0.2 -- -- 46
2019-02-01 14:00:00 15.5 35 Noroeste 57 Noroeste 0 -- -- 47
2019-02-01 13:00:00 16 26 Noroeste 51 Norte 0 -- -- 54
2019-02-01 12:00:00 16.4 16 Noroeste 50 Noroeste 0.2 -- -- 63
2019-02-01 11:00:00 13.9 29 Noroeste 58 Noroeste 0.2 -- -- 71
2019-02-01 10:00:00 14 10 Oeste 52 Sudoeste 5.8 -- -- 96
2019-02-01 09:00:00 14 21 Sudoeste 52 Sudoeste 4.2 -- -- 94
2019-02-01 08:00:00 14.3 20 Oeste 44 Oeste 0.2 -- -- 90
2019-02-01 07:00:00 14.1 19 Oeste 49 Oeste 0.6 -- -- 94
2019-02-01 06:00:00 13.9 26 Sudoeste 55 Oeste 0.4 -- -- 96
2019-02-01 05:00:00 14 24 Sudoeste 46 Sudoeste 1 -- -- 95
2019-02-01 04:00:00 14 26 Sudoeste 49 Sudoeste 0 -- -- 91
2019-02-01 03:00:00 14.3 21 Oeste 38 Sudoeste 0 -- -- 92
2019-02-01 02:00:00 13.7 18 Oeste 39 Oeste 2 -- -- 94
2019-02-01 01:00:00 13.7 11 Oeste 29 Oeste 0.2 -- -- 90
2019-02-01 00:00:00 14.2 6 Noroeste 20 Sudoeste 0 -- -- 85
2019-01-31 23:00:00 14.6 12 Oeste 34 Oeste 0 -- -- 80
2019-01-31 22:00:00 15 15 Oeste 33 Oeste 0 -- -- 75
2019-01-31 21:00:00 15.3 13 Oeste 36 Oeste 0 -- -- 73
2019-01-31 20:00:00 14.5 6 Oeste 18 Sudoeste 0 -- -- 82
2019-01-31 19:00:00 14.7 7 Noroeste 30 Oeste 0 -- -- 82
2019-01-31 18:00:00 16 8 Oeste 30 Oeste 0 -- -- 76
2019-01-31 17:00:00 16 18 Oeste 36 Oeste 0 -- -- 76
2019-01-31 16:00:00 16 10 Oeste 33 Oeste 0 -- -- 77
2019-01-31 15:00:00 15.8 12 Sudoeste 25 Oeste 0 -- -- 80
2019-01-31 14:00:00 15.3 13 Oeste 31 Sudoeste 0 -- -- 82
2019-01-31 13:00:00 15.6 12 Sudoeste 22 Oeste 0 -- -- 83
2019-01-31 12:00:00 15.1 10 Oeste 22 Sudoeste 0 -- -- 83
2019-01-31 11:00:00 15.2 2 Norte 7 Noroeste 0 -- -- 80
2019-01-31 10:00:00 14.7 4 Noroeste 9 Noroeste 0 -- -- 81
2019-01-31 09:00:00 13.6 5 Norte 18 Sudoeste 0 -- -- 83
2019-01-31 08:00:00 13.6 9 Oeste 16 Oeste 0 -- -- 82
2019-01-31 07:00:00 13.7 8 Oeste 15 Oeste 0 -- -- 79
2019-01-31 06:00:00 13.5 5 Noroeste 11 Oeste 0 -- -- 81
2019-01-31 05:00:00 13.7 6 Oeste 23 Norte 0 -- -- 80
2019-01-31 04:00:00 14 14 Norte 21 Noroeste 0 -- -- 75
2019-01-31 03:00:00 13.6 6 Oeste 13 Oeste 0 -- -- 77
2019-01-31 02:00:00 13.1 5 Noroeste 12 Oeste 0 -- -- 82
2019-01-31 01:00:00 13.1 6 Noroeste 14 Oeste 0 -- -- 77
2019-01-31 00:00:00 13.7 8 Noroeste 17 Norte 0 -- -- 70
2019-01-30 23:00:00 13.2 6 Noroeste 23 Noroeste 0 -- -- 71
2019-01-30 22:00:00 13.8 17 Noroeste 39 Norte 0 -- -- 69
2019-01-30 21:00:00 14.2 26 Norte 37 Norte 0 -- -- 62
2019-01-30 20:00:00 14.6 18 Noroeste 28 Noroeste 0 -- -- 59
2019-01-30 19:00:00 15.3 18 Noroeste 31 Noroeste 0 -- -- 54
2019-01-30 18:00:00 16 15 Noroeste 29 Noroeste 0 -- -- 51
2019-01-30 17:00:00 17.1 17 Noroeste 33 Norte 0 -- -- 49
2019-01-30 16:00:00 16.5 20 Noroeste 33 Noroeste 0 -- -- 48
2019-01-30 15:00:00 16.4 17 Noroeste 40 Noroeste 0 -- -- 48
2019-01-30 14:00:00 17 30 Noroeste 55 Noroeste 0 -- -- 45
2019-01-30 13:00:00 16.5 32 Noroeste 53 Noroeste 0 -- -- 47
2019-01-30 12:00:00 16.1 21 Noroeste 47 Noroeste 0 -- -- 48
2019-01-30 11:00:00 15 26 Noroeste 49 Noroeste 0 -- -- 50
2019-01-30 10:00:00 14.1 17 Noroeste 28 Noroeste 0 -- -- 61
2019-01-30 09:00:00 13.2 10 Noroeste 20 Oeste 0 -- -- 67
2019-01-30 08:00:00 12.6 8 Oeste 25 Oeste 0 -- -- 80
2019-01-30 07:00:00 12.9 9 Noroeste 28 Noroeste 0 -- -- 78
2019-01-30 06:00:00 13.1 11 Noroeste 37 Noroeste 0 -- -- 76
2019-01-30 05:00:00 13.4 19 Noroeste 37 Noroeste 0 -- -- 72
2019-01-30 04:00:00 13.4 23 Noroeste 36 Noroeste 0 -- -- 69
2019-01-30 03:00:00 13.4 21 Noroeste 43 Noroeste 0 -- -- 69
2019-01-30 02:00:00 13.9 21 Noroeste 42 Noroeste 0 -- -- 66
2019-01-30 01:00:00 14.5 24 Noroeste 38 Noroeste 0 -- -- 64
2019-01-30 00:00:00 15.1 22 Noroeste 36 Noroeste 0 -- -- 60
2019-01-29 23:00:00 15.2 19 Noroeste 35 Oeste 0 -- -- 60
2019-01-29 22:00:00 15.3 14 Noroeste 29 Noroeste 0 -- -- 58
2019-01-29 21:00:00 15.2 17 Noroeste 39 Noroeste 0 -- -- 60
2019-01-29 20:00:00 15.3 19 Noroeste 30 Oeste 0 -- -- 60
2019-01-29 19:00:00 14.7 17 Noroeste 37 Noroeste 0 -- -- 60
2019-01-29 18:00:00 15 16 Noroeste 56 Norte 0 -- -- 58
2019-01-29 17:00:00 15.7 37 Noroeste 55 Noroeste 0 -- -- 56
2019-01-29 16:00:00 17.6 36 Noroeste 53 Norte 0 -- -- 49
2019-01-29 15:00:00 18.4 34 Noroeste 55 Noroeste 0 -- -- 45
2019-01-29 14:00:00 18.8 33 Noroeste 54 Noroeste 0 -- -- 45
2019-01-29 13:00:00 17.1 36 Noroeste 62 Noroeste 0 -- -- 47
2019-01-29 12:00:00 17.4 36 Noroeste 59 Noroeste 0 -- -- 44
2019-01-29 11:00:00 15.4 27 Noroeste 46 Noroeste 0 -- -- 49
2019-01-29 10:00:00 15.1 18 Noroeste 39 Oeste 0 -- -- 52
2019-01-29 09:00:00 13.4 19 Noroeste 41 Noroeste 0 -- -- 60
2019-01-29 08:00:00 13.1 21 Noroeste 36 Noroeste 0 -- -- 60
2019-01-29 07:00:00 13.1 19 Noroeste 40 Noroeste 0 -- -- 58
2019-01-29 06:00:00 13.1 10 Noroeste 30 Noroeste 0 -- -- 59
2019-01-29 05:00:00 13.4 18 Noroeste 43 Norte 0 -- -- 57
2019-01-29 04:00:00 13.5 24 Noroeste 42 Norte 0 -- -- 59
2019-01-29 03:00:00 13.2 21 Noroeste 36 Noroeste 0 -- -- 61
2019-01-29 02:00:00 13.4 22 Noroeste 34 Noroeste 0 -- -- 61
2019-01-29 01:00:00 13.9 12 Noroeste 21 Noroeste 0 -- -- 57
2019-01-29 00:00:00 15 13 Noroeste 57 Noroeste 0 -- -- 53
2019-01-28 23:00:00 15.5 31 Noroeste 62 Noroeste 0 -- -- 50
2019-01-28 22:00:00 15.8 30 Noroeste 70 Norte 0 -- -- 52
2019-01-28 21:00:00 15.8 46 Noroeste 77 Noroeste 0 -- -- 51
2019-01-28 20:00:00 15.3 29 Noroeste 51 Nordeste 0 -- -- 53
2019-01-28 19:00:00 15 30 Noroeste 60 Noroeste 0 -- -- 52
2019-01-28 18:00:00 15.6 38 Noroeste 66 Noroeste 0 -- -- 49
2019-01-28 17:00:00 16.6 41 Noroeste 66 Noroeste 0 -- -- 44
2019-01-28 16:00:00 17.4 41 Noroeste 60 Noroeste 0 -- -- 39
2019-01-28 15:00:00 18.1 39 Noroeste 63 Noroeste 0 -- -- 37
2019-01-28 14:00:00 17.9 34 Noroeste 49 Noroeste 0 -- -- 36
2019-01-28 13:00:00 16 15 Sudoeste 35 Sudoeste 0 -- -- 47
2019-01-28 12:00:00 15.2 16 Sudoeste 33 Sudoeste 0 -- -- 48
2019-01-28 11:00:00 15.4 10 Oeste 22 Noroeste 0 -- -- 42
2019-01-28 10:00:00 12.4 12 Noroeste 18 Noroeste 0 -- -- 48
2019-01-28 09:00:00 8.6 12 Norte 18 Norte 0 -- -- 60
2019-01-28 08:00:00 9.5 9 Noroeste 22 Noroeste 0 -- -- 57
2019-01-28 07:00:00 9.1 9 Norte 20 Noroeste 0 -- -- 58
2019-01-28 06:00:00 11 15 Noroeste 35 Noroeste 0 -- -- 52
2019-01-28 05:00:00 11.3 22 Noroeste 39 Noroeste 0 -- -- 53
2019-01-28 04:00:00 11.4 19 Noroeste 40 Norte 0 -- -- 52
2019-01-28 03:00:00 12 26 Noroeste 36 Noroeste 0 -- -- 50
2019-01-28 02:00:00 12.3 17 Noroeste 26 Noroeste 0 -- -- 49
2019-01-28 01:00:00 12.5 17 Noroeste 28 Noroeste 0 -- -- 49
2019-01-28 00:00:00 11.6 15 Noroeste 24 Noroeste 0 -- -- 53
2019-01-27 23:00:00 11.5 6 Norte 17 Noroeste 0 -- -- 54
2019-01-27 22:00:00 12.6 5 Norte 39 Noroeste 0 -- -- 54
2019-01-27 21:00:00 14.6 9 Oeste 42 Norte 0 -- -- 45
2019-01-27 20:00:00 14.9 25 Noroeste 63 Norte 0 -- -- 45
2019-01-27 19:00:00 14.9 28 Noroeste 61 Noroeste 0 -- -- 47
2019-01-27 18:00:00 15.6 34 Noroeste 64 Noroeste 0 -- -- 47
2019-01-27 17:00:00 17.1 37 Noroeste 58 Noroeste 0 -- -- 44
2019-01-27 16:00:00 19.2 29 Noroeste 42 Noroeste 0 -- -- 37
2019-01-27 15:00:00 19.5 32 Noroeste 49 Noroeste 0 -- -- 38
2019-01-27 14:00:00 19.2 24 Noroeste 53 Oeste 0 -- -- 41
2019-01-27 13:00:00 18.7 30 Noroeste 53 Noroeste 0 -- -- 42
2019-01-27 12:00:00 18.3 29 Noroeste 52 Noroeste 0 -- -- 44
2019-01-27 11:00:00 17.3 29 Noroeste 44 Noroeste 0 -- -- 47
2019-01-27 10:00:00 15.4 24 Noroeste 37 Noroeste 0 -- -- 53
2019-01-27 09:00:00 13.9 27 Noroeste 41 Noroeste 0 -- -- 57
2019-01-27 08:00:00 14.3 19 Noroeste 35 Noroeste 0 -- -- 55
2019-01-27 07:00:00 15.2 24 Noroeste 38 Noroeste 0 -- -- 58
2019-01-27 06:00:00 12.7 17 Noroeste 25 Noroeste 0 -- -- 63
2019-01-27 05:00:00 9.6 7 Norte 21 Noroeste 0 -- -- 74
2019-01-27 04:00:00 7.9 9 Norte 11 Norte 0 -- -- 87
2019-01-27 03:00:00 7 6 Norte 12 Nordeste 0 -- -- 93
2019-01-27 02:00:00 6.9 4 Nordeste 9 Nordeste 0 -- -- 94
2019-01-27 01:00:00 7.3 0 Calma 5 Sur 0 -- -- 94
2019-01-27 00:00:00 7.6 3 Nordeste 6 Norte 0 -- -- 95
2019-01-26 23:00:00 8.2 0 Calma 5 Norte 0 -- -- 94
2019-01-26 22:00:00 9.9 0 Calma 2 Sudoeste 0 -- -- 94
2019-01-26 21:00:00 11.1 0 Calma 7 Norte 0 -- -- 93
2019-01-26 20:00:00 12.9 4 Oeste 8 Sudoeste 0 -- -- 92
2019-01-26 19:00:00 14 0 Calma 5 Sur 0 -- -- 88
2019-01-26 18:00:00 16.7 2 Sudoeste 11 Sur 0 -- -- 75
2019-01-26 17:00:00 18.7 6 Sudoeste 12 Sur 0 -- -- 62
2019-01-26 16:00:00 18.2 7 Sur 12 Sudoeste 0 -- -- 71
2019-01-26 15:00:00 18 9 Sur 14 Sudoeste 0 -- -- 74
2019-01-26 14:00:00 17.8 9 Sur 15 Sur 0 -- -- 75
2019-01-26 13:00:00 17.9 12 Sur 16 Sur 0 -- -- 61
2019-01-26 12:00:00 18.3 6 Sur 10 Sur 0 -- -- 53
2019-01-26 11:00:00 16 5 Sudoeste 8 Sur 0 -- -- 68
2019-01-26 10:00:00 11.6 2 Norte 5 Norte 0 -- -- 88
2019-01-26 09:00:00 8.1 4 Norte 6 Norte 0 -- -- 90
2019-01-26 08:00:00 8 4 Norte 6 Norte 0 -- -- 91
2019-01-26 07:00:00 8.5 3 Nordeste 9 Nordeste 0 -- -- 87
2019-01-26 06:00:00 8.9 3 Nordeste 8 Norte 0 -- -- 83
2019-01-26 05:00:00 9.6 6 Norte 9 Norte 0 -- -- 79
2019-01-26 04:00:00 9.4 4 Norte 10 Norte 0 -- -- 81
2019-01-26 03:00:00 10.3 7 Norte 10 Norte 0 -- -- 80
2019-01-26 02:00:00 9.5 3 Norte 8 Norte 0 -- -- 84
2019-01-26 01:00:00 9.8 2 Norte 8 Norte 0 -- -- 83
2019-01-26 00:00:00 10.6 6 Norte 12 Norte 0 -- -- 81
2019-01-25 23:00:00 10.6 3 Nordeste 10 Norte 0 -- -- 82
2019-01-25 22:00:00 11.2 4 Nordeste 9 Norte 0 -- -- 79
2019-01-25 21:00:00 12.1 0 Calma 11 Norte 0 -- -- 76
2019-01-25 20:00:00 12.9 2 Nordeste 8 Norte 0 -- -- 74
2019-01-25 19:00:00 15.8 3 Norte 6 Norte 0 -- -- 63
2019-01-25 18:00:00 19.2 4 Sur 10 Sudoeste 0 -- -- 53
2019-01-25 17:00:00 20.3 6 Sudoeste 12 Sudoeste 0 -- -- 48
2019-01-25 16:00:00 20.5 10 Sur 16 Sur 0 -- -- 45
2019-01-25 15:00:00 20.3 12 Sur 15 Sur 0 -- -- 44
2019-01-25 14:00:00 20.3 9 Sur 14 Sur 0 -- -- 48
2019-01-25 13:00:00 19.6 9 Sur 17 Sudoeste 0 -- -- 54
2019-01-25 12:00:00 19.5 9 Sur 17 Sur 0 -- -- 50
2019-01-25 11:00:00 18.8 3 Este 16 Sudeste 0 -- -- 57
2019-01-25 10:00:00 15.5 3 Sudeste 8 Este 0 -- -- 67
2019-01-25 09:00:00 13.6 3 Este 9 Este 0 -- -- 69
2019-01-25 08:00:00 15.5 8 Sudeste 18 Sudeste 0 -- -- 63
2019-01-25 07:00:00 18.2 9 Sur 30 Nordeste 0 -- -- 49
2019-01-25 06:00:00 18.8 9 Nordeste 30 Nordeste 0 -- -- 42
2019-01-25 05:00:00 18.9 11 Nordeste 30 Este 0 -- -- 43
2019-01-25 04:00:00 13.1 5 Norte 14 Nordeste 0 -- -- 63
2019-01-25 03:00:00 13.2 4 Noroeste 12 Norte 0 -- -- 63
2019-01-25 02:00:00 13.7 5 Norte 13 Norte 0 -- -- 64
2019-01-25 01:00:00 16.4 7 Norte 23 Sudeste 0 -- -- 54
2019-01-25 00:00:00 16.4 7 Nordeste 19 Noroeste 0 -- -- 52
2019-01-24 23:00:00 16.4 5 Norte 16 Noroeste 0 -- -- 52
2019-01-24 22:00:00 17 14 Noroeste 22 Noroeste 0 -- -- 50
2019-01-24 21:00:00 17.4 6 Noroeste 17 Este 0 -- -- 46
2019-01-24 20:00:00 18.5 4 Noroeste 27 Sudeste 0 -- -- 43
2019-01-24 19:00:00 20 9 Nordeste 27 Nordeste 0 -- -- 37
2019-01-24 18:00:00 20.5 4 Norte 17 Sudoeste 0 -- -- 40
2019-01-24 17:00:00 22.7 10 Sudeste 34 Noroeste 0 -- -- 39
2019-01-24 16:00:00 21 28 Noroeste 50 Noroeste 0 -- -- 43
2019-01-24 15:00:00 20.1 29 Noroeste 44 Noroeste 0 -- -- 46
2019-01-24 14:00:00 19.9 32 Norte 54 Norte 0 -- -- 47
2019-01-24 13:00:00 18.3 41 Norte 68 Norte 0 -- -- 52
2019-01-24 12:00:00 17.1 41 Norte 53 Noroeste 0 -- -- 57
2019-01-24 11:00:00 16 22 Noroeste 37 Noroeste 0 -- -- 60
2019-01-24 10:00:00 15.2 20 Noroeste 37 Noroeste 0 -- -- 63
2019-01-24 09:00:00 14.4 16 Noroeste 35 Oeste 0 -- -- 65
2019-01-24 08:00:00 14.4 18 Noroeste 41 Noroeste 0 -- -- 65
2019-01-24 07:00:00 14.6 19 Noroeste 31 Noroeste 0 -- -- 64
2019-01-24 06:00:00 14.5 16 Noroeste 32 Noroeste 0 -- -- 65
2019-01-24 05:00:00 14.7 20 Noroeste 38 Noroeste 0 -- -- 65
2019-01-24 04:00:00 14.7 25 Noroeste 38 Noroeste 0 -- -- 64
2019-01-24 03:00:00 14.8 20 Noroeste 32 Noroeste 0 -- -- 64
2019-01-24 02:00:00 14.9 17 Noroeste 28 Noroeste 0 -- -- 62
2019-01-24 01:00:00 15 17 Noroeste 31 Noroeste 0 -- -- 61
2019-01-24 00:00:00 15.3 14 Noroeste 37 Noroeste 0 -- -- 60